sensor_id;sensor_type;location;lat;lon;timestamp;pressure;altitude;pressure_sealevel;temperature
77728;BMP280;68312;53.502;10.030;2023-07-08T00:00:00;102416.19;;;14.84
77728;BMP280;68312;53.502;10.030;2023-07-08T00:02:26;102405.09;;;14.82
77728;BMP280;68312;53.502;10.030;2023-07-08T00:04:52;102404.31;;;14.82
77728;BMP280;68312;53.502;10.030;2023-07-08T00:07:19;102403.38;;;14.78
77728;BMP280;68312;53.502;10.030;2023-07-08T00:09:45;102400.06;;;14.72
77728;BMP280;68312;53.502;10.030;2023-07-08T00:12:11;102402.84;;;14.68
77728;BMP280;68312;53.502;10.030;2023-07-08T00:14:37;102392.38;;;14.63
77728;BMP280;68312;53.502;10.030;2023-07-08T00:17:10;102396.75;;;14.59
77728;BMP280;68312;53.502;10.030;2023-07-08T00:19:37;102390.28;;;14.51
77728;BMP280;68312;53.502;10.030;2023-07-08T00:22:10;102394.44;;;14.44
77728;BMP280;68312;53.502;10.030;2023-07-08T00:24:37;102385.84;;;14.39
77728;BMP280;68312;53.502;10.030;2023-07-08T00:27:02;102383.81;;;14.36
77728;BMP280;68312;53.502;10.030;2023-07-08T00:29:28;102389.38;;;14.34
77728;BMP280;68312;53.502;10.030;2023-07-08T00:31:54;102379.88;;;14.33
77728;BMP280;68312;53.502;10.030;2023-07-08T00:34:20;102384.38;;;14.33
77728;BMP280;68312;53.502;10.030;2023-07-08T00:36:46;102389.66;;;14.33
77728;BMP280;68312;53.502;10.030;2023-07-08T00:39:14;102391.25;;;14.34
77728;BMP280;68312;53.502;10.030;2023-07-08T00:41:41;102379.78;;;14.38
77728;BMP280;68312;53.502;10.030;2023-07-08T00:44:11;102383.28;;;14.47
77728;BMP280;68312;53.502;10.030;2023-07-08T00:46:46;102383.59;;;14.54
77728;BMP280;68312;53.502;10.030;2023-07-08T00:51:48;102376.94;;;14.56
77728;BMP280;68312;53.502;10.030;2023-07-08T00:54:16;102378.94;;;14.51
77728;BMP280;68312;53.502;10.030;2023-07-08T00:59:21;102377.09;;;14.30
77728;BMP280;68312;53.502;10.030;2023-07-08T01:01:54;102373.84;;;14.19
77728;BMP280;68312;53.502;10.030;2023-07-08T01:04:28;102376.94;;;14.13
77728;BMP280;68312;53.502;10.030;2023-07-08T01:06:59;102381.06;;;14.06
77728;BMP280;68312;53.502;10.030;2023-07-08T01:09:35;102379.31;;;14.01
77728;BMP280;68312;53.502;10.030;2023-07-08T01:12:08;102387.06;;;13.98
77728;BMP280;68312;53.502;10.030;2023-07-08T01:14:38;102378.66;;;13.96
77728;BMP280;68312;53.502;10.030;2023-07-08T01:17:08;102383.44;;;13.94
77728;BMP280;68312;53.502;10.030;2023-07-08T01:19:40;102387.78;;;13.90
77728;BMP280;68312;53.502;10.030;2023-07-08T01:22:07;102378.25;;;13.89
77728;BMP280;68312;53.502;10.030;2023-07-08T01:24:36;102374.34;;;13.86
77728;BMP280;68312;53.502;10.030;2023-07-08T01:27:07;102375.75;;;13.84
77728;BMP280;68312;53.502;10.030;2023-07-08T01:29:36;102373.69;;;13.81
77728;BMP280;68312;53.502;10.030;2023-07-08T01:32:02;102359.50;;;13.77
77728;BMP280;68312;53.502;10.030;2023-07-08T01:34:29;102359.59;;;13.72
77728;BMP280;68312;53.502;10.030;2023-07-08T01:36:56;102361.88;;;13.65
77728;BMP280;68312;53.502;10.030;2023-07-08T01:39:27;102359.63;;;13.59
77728;BMP280;68312;53.502;10.030;2023-07-08T01:41:55;102362.84;;;13.56
77728;BMP280;68312;53.502;10.030;2023-07-08T01:44:30;102367.34;;;13.56
77728;BMP280;68312;53.502;10.030;2023-07-08T01:47:20;102364.25;;;13.54
77728;BMP280;68312;53.502;10.030;2023-07-08T01:49:47;102361.88;;;13.52
77728;BMP280;68312;53.502;10.030;2023-07-08T01:52:15;102361.69;;;13.49
77728;BMP280;68312;53.502;10.030;2023-07-08T01:54:42;102364.91;;;13.46
77728;BMP280;68312;53.502;10.030;2023-07-08T01:57:08;102357.91;;;13.41
77728;BMP280;68312;53.502;10.030;2023-07-08T01:59:33;102356.16;;;13.37
77728;BMP280;68312;53.502;10.030;2023-07-08T02:01:59;102356.31;;;13.27
77728;BMP280;68312;53.502;10.030;2023-07-08T02:04:25;102357.59;;;13.30
77728;BMP280;68312;53.502;10.030;2023-07-08T02:06:57;102360.50;;;13.28
77728;BMP280;68312;53.502;10.030;2023-07-08T02:09:24;102356.13;;;13.24
77728;BMP280;68312;53.502;10.030;2023-07-08T02:11:50;102353.28;;;13.20
77728;BMP280;68312;53.502;10.030;2023-07-08T02:14:16;102351.69;;;13.19
77728;BMP280;68312;53.502;10.030;2023-07-08T02:16:41;102351.53;;;13.16
77728;BMP280;68312;53.502;10.030;2023-07-08T02:19:07;102351.09;;;13.09
77728;BMP280;68312;53.502;10.030;2023-07-08T02:21:33;102360.69;;;13.05
77728;BMP280;68312;53.502;10.030;2023-07-08T02:24:00;102360.50;;;13.02
77728;BMP280;68312;53.502;10.030;2023-07-08T02:26:26;102355.31;;;12.97
77728;BMP280;68312;53.502;10.030;2023-07-08T02:28:51;102353.84;;;12.91
77728;BMP280;68312;53.502;10.030;2023-07-08T02:31:17;102362.25;;;12.93
77728;BMP280;68312;53.502;10.030;2023-07-08T02:33:42;102355.97;;;12.89
77728;BMP280;68312;53.502;10.030;2023-07-08T02:36:07;102351.19;;;12.91
77728;BMP280;68312;53.502;10.030;2023-07-08T02:38:33;102356.56;;;12.86
77728;BMP280;68312;53.502;10.030;2023-07-08T02:40:59;102360.16;;;12.90
77728;BMP280;68312;53.502;10.030;2023-07-08T02:43:25;102360.78;;;12.87
77728;BMP280;68312;53.502;10.030;2023-07-08T02:45:51;102360.78;;;12.87
77728;BMP280;68312;53.502;10.030;2023-07-08T02:48:18;102360.78;;;12.87
77728;BMP280;68312;53.502;10.030;2023-07-08T02:50:44;102357.13;;;12.83
77728;BMP280;68312;53.502;10.030;2023-07-08T02:53:09;102364.56;;;12.81
77728;BMP280;68312;53.502;10.030;2023-07-08T02:55:34;102363.28;;;12.78
77728;BMP280;68312;53.502;10.030;2023-07-08T02:58:00;102367.28;;;12.76
77728;BMP280;68312;53.502;10.030;2023-07-08T03:00:26;102367.34;;;12.71
77728;BMP280;68312;53.502;10.030;2023-07-08T03:02:52;102358.50;;;12.67
77728;BMP280;68312;53.502;10.030;2023-07-08T03:05:17;102357.41;;;12.68
77728;BMP280;68312;53.502;10.030;2023-07-08T03:07:42;102356.94;;;12.79
77728;BMP280;68312;53.502;10.030;2023-07-08T03:10:08;102357.91;;;12.83
77728;BMP280;68312;53.502;10.030;2023-07-08T03:12:34;102359.00;;;12.82
77728;BMP280;68312;53.502;10.030;2023-07-08T03:15:00;102349.50;;;12.81
77728;BMP280;68312;53.502;10.030;2023-07-08T03:17:25;102359.19;;;12.86
77728;BMP280;68312;53.502;10.030;2023-07-08T03:19:50;102356.28;;;12.87
77728;BMP280;68312;53.502;10.030;2023-07-08T03:22:16;102357.84;;;12.88
77728;BMP280;68312;53.502;10.030;2023-07-08T03:24:41;102349.91;;;12.88
77728;BMP280;68312;53.502;10.030;2023-07-08T03:27:14;102353.63;;;12.87
77728;BMP280;68312;53.502;10.030;2023-07-08T03:29:40;102352.69;;;12.97
77728;BMP280;68312;53.502;10.030;2023-07-08T03:32:09;102351.72;;;13.06
77728;BMP280;68312;53.502;10.030;2023-07-08T03:34:37;102352.09;;;13.13
77728;BMP280;68312;53.502;10.030;2023-07-08T03:37:03;102350.19;;;13.18
77728;BMP280;68312;53.502;10.030;2023-07-08T03:39:29;102357.97;;;13.23
77728;BMP280;68312;53.502;10.030;2023-07-08T03:41:56;102355.22;;;13.28
77728;BMP280;68312;53.502;10.030;2023-07-08T03:44:22;102350.38;;;13.35
77728;BMP280;68312;53.502;10.030;2023-07-08T03:46:49;102353.88;;;13.44
77728;BMP280;68312;53.502;10.030;2023-07-08T03:49:16;102339.59;;;13.58
77728;BMP280;68312;53.502;10.030;2023-07-08T03:51:44;102343.56;;;13.69
77728;BMP280;68312;53.502;10.030;2023-07-08T03:54:11;102342.59;;;13.78
77728;BMP280;68312;53.502;10.030;2023-07-08T03:56:38;102345.00;;;13.88
77728;BMP280;68312;53.502;10.030;2023-07-08T03:59:04;102342.13;;;13.98
77728;BMP280;68312;53.502;10.030;2023-07-08T04:01:29;102346.28;;;14.12
77728;BMP280;68312;53.502;10.030;2023-07-08T04:03:57;102342.38;;;14.31
77728;BMP280;68312;53.502;10.030;2023-07-08T04:10:05;102349.50;;;14.44
77728;BMP280;68312;53.502;10.030;2023-07-08T04:12:31;102347.91;;;14.43
77728;BMP280;68312;53.502;10.030;2023-07-08T04:14:56;102346.94;;;14.39
77728;BMP280;68312;53.502;10.030;2023-07-08T04:17:22;102346.19;;;14.39
77728;BMP280;68312;53.502;10.030;2023-07-08T04:19:49;102343.25;;;14.40
77728;BMP280;68312;53.502;10.030;2023-07-08T04:22:15;102335.19;;;14.45
77728;BMP280;68312;53.502;10.030;2023-07-08T04:24:40;102338.00;;;14.48
77728;BMP280;68312;53.502;10.030;2023-07-08T04:27:12;102339.25;;;14.51
77728;BMP280;68312;53.502;10.030;2023-07-08T04:29:40;102344.25;;;14.52
77728;BMP280;68312;53.502;10.030;2023-07-08T04:32:06;102349.41;;;14.57
77728;BMP280;68312;53.502;10.030;2023-07-08T04:34:32;102340.06;;;14.60
77728;BMP280;68312;53.502;10.030;2023-07-08T04:36:57;102340.13;;;14.68
77728;BMP280;68312;53.502;10.030;2023-07-08T04:39:23;102345.78;;;14.75
77728;BMP280;68312;53.502;10.030;2023-07-08T04:41:48;102337.09;;;14.83
77728;BMP280;68312;53.502;10.030;2023-07-08T04:44:14;102345.09;;;14.91
77728;BMP280;68312;53.502;10.030;2023-07-08T04:46:45;102345.72;;;14.97
77728;BMP280;68312;53.502;10.030;2023-07-08T04:49:16;102348.81;;;14.98
77728;BMP280;68312;53.502;10.030;2023-07-08T04:51:42;102340.75;;;15.03
77728;BMP280;68312;53.502;10.030;2023-07-08T04:54:10;102337.50;;;15.06
77728;BMP280;68312;53.502;10.030;2023-07-08T04:56:46;102332.88;;;15.12
77728;BMP280;68312;53.502;10.030;2023-07-08T04:59:17;102342.09;;;15.23
77728;BMP280;68312;53.502;10.030;2023-07-08T05:01:43;102336.19;;;15.34
77728;BMP280;68312;53.502;10.030;2023-07-08T05:04:13;102322.81;;;15.47
77728;BMP280;68312;53.502;10.030;2023-07-08T05:06:40;102329.38;;;15.58
77728;BMP280;68312;53.502;10.030;2023-07-08T05:09:06;102341.06;;;15.74
77728;BMP280;68312;53.502;10.030;2023-07-08T05:11:33;102327.34;;;15.80
77728;BMP280;68312;53.502;10.030;2023-07-08T05:14:00;102323.13;;;15.87
77728;BMP280;68312;53.502;10.030;2023-07-08T05:16:26;102340.00;;;16.00
77728;BMP280;68312;53.502;10.030;2023-07-08T05:18:52;102329.03;;;16.09
77728;BMP280;68312;53.502;10.030;2023-07-08T05:21:19;102331.66;;;16.18
77728;BMP280;68312;53.502;10.030;2023-07-08T05:23:47;102335.25;;;16.30
77728;BMP280;68312;53.502;10.030;2023-07-08T05:26:16;102336.00;;;16.39
77728;BMP280;68312;53.502;10.030;2023-07-08T05:28:42;102335.84;;;16.44
77728;BMP280;68312;53.502;10.030;2023-07-08T05:31:07;102335.78;;;16.52
77728;BMP280;68312;53.502;10.030;2023-07-08T05:33:33;102326.41;;;16.63
77728;BMP280;68312;53.502;10.030;2023-07-08T05:36:00;102326.03;;;16.73
77728;BMP280;68312;53.502;10.030;2023-07-08T05:38:26;102326.75;;;16.90
77728;BMP280;68312;53.502;10.030;2023-07-08T05:40:57;102325.78;;;17.03
77728;BMP280;68312;53.502;10.030;2023-07-08T05:43:24;102321.75;;;17.17
77728;BMP280;68312;53.502;10.030;2023-07-08T05:45:50;102321.47;;;17.39
77728;BMP280;68312;53.502;10.030;2023-07-08T05:48:17;102320.91;;;17.53
77728;BMP280;68312;53.502;10.030;2023-07-08T05:50:44;102314.53;;;17.66
77728;BMP280;68312;53.502;10.030;2023-07-08T05:53:11;102326.56;;;17.84
77728;BMP280;68312;53.502;10.030;2023-07-08T05:55:37;102311.56;;;18.11
77728;BMP280;68312;53.502;10.030;2023-07-08T05:58:03;102318.28;;;18.29
77728;BMP280;68312;53.502;10.030;2023-07-08T06:00:28;102326.28;;;18.41
77728;BMP280;68312;53.502;10.030;2023-07-08T06:02:54;102314.75;;;18.48
77728;BMP280;68312;53.502;10.030;2023-07-08T06:05:19;102314.63;;;18.57
77728;BMP280;68312;53.502;10.030;2023-07-08T06:07:46;102311.94;;;18.69
77728;BMP280;68312;53.502;10.030;2023-07-08T06:10:11;102313.94;;;18.83
77728;BMP280;68312;53.502;10.030;2023-07-08T06:12:37;102313.16;;;18.95
77728;BMP280;68312;53.502;10.030;2023-07-08T06:15:02;102325.34;;;19.07
77728;BMP280;68312;53.502;10.030;2023-07-08T06:17:28;102317.91;;;19.13
77728;BMP280;68312;53.502;10.030;2023-07-08T06:19:54;102315.91;;;19.22
77728;BMP280;68312;53.502;10.030;2023-07-08T06:22:19;102313.28;;;19.37
77728;BMP280;68312;53.502;10.030;2023-07-08T06:24:45;102315.13;;;19.60
77728;BMP280;68312;53.502;10.030;2023-07-08T06:27:12;102313.66;;;19.77
77728;BMP280;68312;53.502;10.030;2023-07-08T06:29:38;102299.28;;;19.94
77728;BMP280;68312;53.502;10.030;2023-07-08T06:32:04;102308.41;;;20.08
77728;BMP280;68312;53.502;10.030;2023-07-08T06:34:30;102308.66;;;20.18
77728;BMP280;68312;53.502;10.030;2023-07-08T06:36:56;102314.31;;;20.32
77728;BMP280;68312;53.502;10.030;2023-07-08T06:39:21;102310.81;;;20.43
77728;BMP280;68312;53.502;10.030;2023-07-08T06:41:47;102311.91;;;20.57
77728;BMP280;68312;53.502;10.030;2023-07-08T06:44:12;102303.63;;;20.62
77728;BMP280;68312;53.502;10.030;2023-07-08T06:46:38;102314.75;;;20.83
77728;BMP280;68312;53.502;10.030;2023-07-08T06:49:04;102315.69;;;20.90
77728;BMP280;68312;53.502;10.030;2023-07-08T06:51:34;102310.84;;;20.96
77728;BMP280;68312;53.502;10.030;2023-07-08T06:54:00;102307.00;;;21.12
77728;BMP280;68312;53.502;10.030;2023-07-08T06:56:33;102299.00;;;21.30
77728;BMP280;68312;53.502;10.030;2023-07-08T06:58:59;102295.88;;;21.47
77728;BMP280;68312;53.502;10.030;2023-07-08T07:01:24;102298.09;;;21.64
77728;BMP280;68312;53.502;10.030;2023-07-08T07:03:50;102292.72;;;21.82
77728;BMP280;68312;53.502;10.030;2023-07-08T07:06:15;102291.03;;;21.97
77728;BMP280;68312;53.502;10.030;2023-07-08T07:08:40;102287.91;;;22.17
77728;BMP280;68312;53.502;10.030;2023-07-08T07:11:06;102282.38;;;22.32
77728;BMP280;68312;53.502;10.030;2023-07-08T07:13:31;102277.94;;;22.43
77728;BMP280;68312;53.502;10.030;2023-07-08T07:15:58;102275.41;;;22.53
77728;BMP280;68312;53.502;10.030;2023-07-08T07:18:23;102283.75;;;22.74
77728;BMP280;68312;53.502;10.030;2023-07-08T07:20:52;102285.88;;;22.90
77728;BMP280;68312;53.502;10.030;2023-07-08T07:23:18;102291.78;;;23.03
77728;BMP280;68312;53.502;10.030;2023-07-08T07:25:46;102290.34;;;23.12
77728;BMP280;68312;53.502;10.030;2023-07-08T07:28:15;102285.84;;;23.19
77728;BMP280;68312;53.502;10.030;2023-07-08T07:30:46;102288.41;;;23.45
77728;BMP280;68312;53.502;10.030;2023-07-08T07:33:12;102286.97;;;23.54
77728;BMP280;68312;53.502;10.030;2023-07-08T07:35:43;102276.72;;;23.66
77728;BMP280;68312;53.502;10.030;2023-07-08T07:38:09;102271.44;;;23.77
77728;BMP280;68312;53.502;10.030;2023-07-08T07:40:34;102281.63;;;24.03
77728;BMP280;68312;53.502;10.030;2023-07-08T07:43:00;102269.16;;;24.28
77728;BMP280;68312;53.502;10.030;2023-07-08T07:45:25;102265.41;;;24.56
77728;BMP280;68312;53.502;10.030;2023-07-08T07:47:50;102262.06;;;24.80
77728;BMP280;68312;53.502;10.030;2023-07-08T07:50:16;102272.50;;;24.95
77728;BMP280;68312;53.502;10.030;2023-07-08T07:52:41;102269.47;;;25.10
77728;BMP280;68312;53.502;10.030;2023-07-08T07:55:07;102269.47;;;25.27
77728;BMP280;68312;53.502;10.030;2023-07-08T07:57:33;102266.41;;;25.49
77728;BMP280;68312;53.502;10.030;2023-07-08T07:59:58;102272.97;;;25.62
77728;BMP280;68312;53.502;10.030;2023-07-08T08:02:24;102264.88;;;25.73
77728;BMP280;68312;53.502;10.030;2023-07-08T08:04:49;102277.16;;;25.80
77728;BMP280;68312;53.502;10.030;2023-07-08T08:07:14;102266.03;;;25.85
77728;BMP280;68312;53.502;10.030;2023-07-08T08:09:40;102264.03;;;26.13
77728;BMP280;68312;53.502;10.030;2023-07-08T08:12:07;102263.66;;;26.11
77728;BMP280;68312;53.502;10.030;2023-07-08T08:14:35;102254.81;;;26.07
77728;BMP280;68312;53.502;10.030;2023-07-08T08:17:00;102244.75;;;26.21
77728;BMP280;68312;53.502;10.030;2023-07-08T08:19:27;102256.97;;;26.46
77728;BMP280;68312;53.502;10.030;2023-07-08T08:21:52;102252.72;;;26.52
77728;BMP280;68312;53.502;10.030;2023-07-08T08:24:18;102261.78;;;26.79
77728;BMP280;68312;53.502;10.030;2023-07-08T08:26:44;102272.16;;;26.87
77728;BMP280;68312;53.502;10.030;2023-07-08T08:29:10;102265.88;;;27.07
77728;BMP280;68312;53.502;10.030;2023-07-08T08:31:35;102263.34;;;27.33
77728;BMP280;68312;53.502;10.030;2023-07-08T08:34:01;102264.78;;;27.44
77728;BMP280;68312;53.502;10.030;2023-07-08T08:36:26;102255.06;;;27.50
77728;BMP280;68312;53.502;10.030;2023-07-08T08:38:51;102255.22;;;27.76
77728;BMP280;68312;53.502;10.030;2023-07-08T08:41:31;102255.78;;;27.97
77728;BMP280;68312;53.502;10.030;2023-07-08T08:44:00;102252.19;;;28.36
77728;BMP280;68312;53.502;10.030;2023-07-08T08:46:38;102251.97;;;29.02
77728;BMP280;68312;53.502;10.030;2023-07-08T08:49:34;102261.47;;;29.77
77728;BMP280;68312;53.502;10.030;2023-07-08T08:52:06;102247.41;;;30.36
77728;BMP280;68312;53.502;10.030;2023-07-08T08:54:32;102248.88;;;30.87
77728;BMP280;68312;53.502;10.030;2023-07-08T08:59:44;102252.34;;;31.59
77728;BMP280;68312;53.502;10.030;2023-07-08T09:05:17;102238.44;;;32.10
77728;BMP280;68312;53.502;10.030;2023-07-08T09:11:11;102233.72;;;32.59
77728;BMP280;68312;53.502;10.030;2023-07-08T09:13:44;102232.63;;;33.02
77728;BMP280;68312;53.502;10.030;2023-07-08T09:16:26;102234.91;;;33.04
77728;BMP280;68312;53.502;10.030;2023-07-08T09:19:07;102229.94;;;33.23
77728;BMP280;68312;53.502;10.030;2023-07-08T09:21:45;102230.94;;;33.38
77728;BMP280;68312;53.502;10.030;2023-07-08T09:24:39;102233.75;;;33.26
77728;BMP280;68312;53.502;10.030;2023-07-08T09:27:09;102234.81;;;33.28
77728;BMP280;68312;53.502;10.030;2023-07-08T09:29:34;102221.69;;;33.35
77728;BMP280;68312;53.502;10.030;2023-07-08T09:32:24;102237.28;;;33.35
77728;BMP280;68312;53.502;10.030;2023-07-08T09:35:02;102224.28;;;33.39
77728;BMP280;68312;53.502;10.030;2023-07-08T09:37:33;102226.63;;;33.49
77728;BMP280;68312;53.502;10.030;2023-07-08T09:40:32;102228.38;;;33.43
77728;BMP280;68312;53.502;10.030;2023-07-08T09:43:24;102227.13;;;33.35
77728;BMP280;68312;53.502;10.030;2023-07-08T09:45:57;102224.91;;;33.73
77728;BMP280;68312;53.502;10.030;2023-07-08T09:48:30;102224.97;;;34.11
77728;BMP280;68312;53.502;10.030;2023-07-08T09:51:00;102224.28;;;33.98
77728;BMP280;68312;53.502;10.030;2023-07-08T09:53:27;102222.94;;;33.73
77728;BMP280;68312;53.502;10.030;2023-07-08T09:55:57;102220.09;;;33.76
77728;BMP280;68312;53.502;10.030;2023-07-08T09:58:36;102219.44;;;33.64
77728;BMP280;68312;53.502;10.030;2023-07-08T10:01:21;102218.19;;;33.65
77728;BMP280;68312;53.502;10.030;2023-07-08T10:03:50;102220.91;;;33.86
77728;BMP280;68312;53.502;10.030;2023-07-08T10:06:27;102210.91;;;33.92
77728;BMP280;68312;53.502;10.030;2023-07-08T10:09:00;102215.06;;;33.75
77728;BMP280;68312;53.502;10.030;2023-07-08T10:11:31;102215.31;;;33.98
77728;BMP280;68312;53.502;10.030;2023-07-08T10:14:04;102216.66;;;34.32
77728;BMP280;68312;53.502;10.030;2023-07-08T10:16:35;102206.47;;;34.24
77728;BMP280;68312;53.502;10.030;2023-07-08T10:19:01;102214.72;;;33.94
77728;BMP280;68312;53.502;10.030;2023-07-08T10:24:50;102207.22;;;34.33
77728;BMP280;68312;53.502;10.030;2023-07-08T10:27:29;102215.31;;;33.98
77728;BMP280;68312;53.502;10.030;2023-07-08T10:33:14;102208.06;;;33.65
77728;BMP280;68312;53.502;10.030;2023-07-08T10:36:08;102203.91;;;34.38
77728;BMP280;68312;53.502;10.030;2023-07-08T10:38:57;102201.16;;;34.12
77728;BMP280;68312;53.502;10.030;2023-07-08T10:45:08;102196.59;;;34.18
77728;BMP280;68312;53.502;10.030;2023-07-08T10:47:57;102193.16;;;34.26
77728;BMP280;68312;53.502;10.030;2023-07-08T10:50:54;102190.34;;;34.17
77728;BMP280;68312;53.502;10.030;2023-07-08T10:57:02;102190.72;;;34.37
77728;BMP280;68312;53.502;10.030;2023-07-08T10:59:56;102184.97;;;34.35
77728;BMP280;68312;53.502;10.030;2023-07-08T11:02:44;102188.63;;;34.58
77728;BMP280;68312;53.502;10.030;2023-07-08T11:08:24;102191.59;;;34.34
77728;BMP280;68312;53.502;10.030;2023-07-08T11:11:01;102176.78;;;34.26
77728;BMP280;68312;53.502;10.030;2023-07-08T11:13:34;102176.91;;;34.31
77728;BMP280;68312;53.502;10.030;2023-07-08T11:16:15;102185.84;;;34.32
77728;BMP280;68312;53.502;10.030;2023-07-08T11:18:51;102183.59;;;34.39
77728;BMP280;68312;53.502;10.030;2023-07-08T11:24:21;102177.56;;;34.79
77728;BMP280;68312;53.502;10.030;2023-07-08T11:27:01;102176.94;;;34.93
77728;BMP280;68312;53.502;10.030;2023-07-08T11:29:42;102171.78;;;34.51
77728;BMP280;68312;53.502;10.030;2023-07-08T11:32:16;102165.69;;;34.38
77728;BMP280;68312;53.502;10.030;2023-07-08T11:34:46;102173.03;;;34.02
77728;BMP280;68312;53.502;10.030;2023-07-08T11:37:15;102171.94;;;33.82
77728;BMP280;68312;53.502;10.030;2023-07-08T11:39:45;102167.75;;;33.99
77728;BMP280;68312;53.502;10.030;2023-07-08T11:42:19;102171.31;;;34.26
77728;BMP280;68312;53.502;10.030;2023-07-08T11:44:57;102165.03;;;34.08
77728;BMP280;68312;53.502;10.030;2023-07-08T11:47:41;102157.19;;;34.18
77728;BMP280;68312;53.502;10.030;2023-07-08T11:50:23;102152.94;;;34.53
77728;BMP280;68312;53.502;10.030;2023-07-08T12:03:39;102142.19;;;34.67
77728;BMP280;68312;53.502;10.030;2023-07-08T12:08:53;102136.25;;;34.95
77728;BMP280;68312;53.502;10.030;2023-07-08T12:11:25;102149.63;;;34.58
77728;BMP280;68312;53.502;10.030;2023-07-08T12:13:53;102147.50;;;34.62
77728;BMP280;68312;53.502;10.030;2023-07-08T12:16:21;102146.72;;;34.87
77728;BMP280;68312;53.502;10.030;2023-07-08T12:18:47;102131.72;;;34.74
77728;BMP280;68312;53.502;10.030;2023-07-08T12:21:15;102132.94;;;34.64
77728;BMP280;68312;53.502;10.030;2023-07-08T12:23:47;102138.72;;;34.58
77728;BMP280;68312;53.502;10.030;2023-07-08T12:26:14;102137.19;;;34.39
77728;BMP280;68312;53.502;10.030;2023-07-08T12:28:40;102140.22;;;34.67
77728;BMP280;68312;53.502;10.030;2023-07-08T12:31:15;102138.38;;;34.73
77728;BMP280;68312;53.502;10.030;2023-07-08T12:33:43;102129.84;;;34.89
77728;BMP280;68312;53.502;10.030;2023-07-08T12:36:13;102120.78;;;34.57
77728;BMP280;68312;53.502;10.030;2023-07-08T12:38:51;102125.66;;;34.35
77728;BMP280;68312;53.502;10.030;2023-07-08T12:41:30;102120.78;;;34.48
77728;BMP280;68312;53.502;10.030;2023-07-08T12:43:58;102124.72;;;34.64
77728;BMP280;68312;53.502;10.030;2023-07-08T12:46:25;102122.63;;;34.51
77728;BMP280;68312;53.502;10.030;2023-07-08T12:48:51;102118.22;;;34.62
77728;BMP280;68312;53.502;10.030;2023-07-08T12:51:20;102117.13;;;34.33
77728;BMP280;68312;53.502;10.030;2023-07-08T12:53:51;102111.41;;;34.40
77728;BMP280;68312;53.502;10.030;2023-07-08T12:56:20;102114.13;;;34.40
77728;BMP280;68312;53.502;10.030;2023-07-08T12:58:53;102108.66;;;34.31
77728;BMP280;68312;53.502;10.030;2023-07-08T13:01:25;102102.59;;;34.45
77728;BMP280;68312;53.502;10.030;2023-07-08T13:04:21;102106.38;;;34.47
77728;BMP280;68312;53.502;10.030;2023-07-08T13:06:47;102108.06;;;34.54
77728;BMP280;68312;53.502;10.030;2023-07-08T13:09:35;102111.53;;;34.72
77728;BMP280;68312;53.502;10.030;2023-07-08T13:12:21;102107.72;;;34.78
77728;BMP280;68312;53.502;10.030;2023-07-08T13:14:47;102109.25;;;34.44
77728;BMP280;68312;53.502;10.030;2023-07-08T13:17:14;102098.81;;;34.51
77728;BMP280;68312;53.502;10.030;2023-07-08T13:19:42;102098.81;;;34.51
77728;BMP280;68312;53.502;10.030;2023-07-08T13:22:34;102107.31;;;34.53
77728;BMP280;68312;53.502;10.030;2023-07-08T13:25:01;102100.84;;;35.00
77728;BMP280;68312;53.502;10.030;2023-07-08T13:27:28;102102.59;;;35.21
77728;BMP280;68312;53.502;10.030;2023-07-08T13:29:55;102092.72;;;34.65
77728;BMP280;68312;53.502;10.030;2023-07-08T13:32:30;102088.00;;;34.57
77728;BMP280;68312;53.502;10.030;2023-07-08T13:34:56;102086.53;;;34.47
77728;BMP280;68312;53.502;10.030;2023-07-08T13:37:22;102091.50;;;34.66
77728;BMP280;68312;53.502;10.030;2023-07-08T13:39:52;102085.88;;;34.69
77728;BMP280;68312;53.502;10.030;2023-07-08T13:42:19;102080.06;;;34.85
77728;BMP280;68312;53.502;10.030;2023-07-08T13:44:46;102080.47;;;35.10
77728;BMP280;68312;53.502;10.030;2023-07-08T13:47:26;102079.06;;;35.23
77728;BMP280;68312;53.502;10.030;2023-07-08T13:50:07;102080.22;;;35.31
77728;BMP280;68312;53.502;10.030;2023-07-08T13:52:43;102082.09;;;35.25
77728;BMP280;68312;53.502;10.030;2023-07-08T13:55:16;102073.47;;;35.09
77728;BMP280;68312;53.502;10.030;2023-07-08T13:57:44;102079.19;;;35.20
77728;BMP280;68312;53.502;10.030;2023-07-08T14:00:10;102082.94;;;34.99
77728;BMP280;68312;53.502;10.030;2023-07-08T14:02:39;102083.53;;;35.35
77728;BMP280;68312;53.502;10.030;2023-07-08T14:05:09;102090.31;;;35.16
77728;BMP280;68312;53.502;10.030;2023-07-08T14:07:38;102081.13;;;35.60
77728;BMP280;68312;53.502;10.030;2023-07-08T14:10:11;102079.03;;;35.55
77728;BMP280;68312;53.502;10.030;2023-07-08T14:12:38;102085.75;;;36.14
77728;BMP280;68312;53.502;10.030;2023-07-08T14:15:04;102076.72;;;36.36
77728;BMP280;68312;53.502;10.030;2023-07-08T14:17:30;102082.50;;;36.01
77728;BMP280;68312;53.502;10.030;2023-07-08T14:19:57;102075.88;;;36.31
77728;BMP280;68312;53.502;10.030;2023-07-08T14:22:29;102067.81;;;36.64
77728;BMP280;68312;53.502;10.030;2023-07-08T14:25:00;102074.56;;;36.55
77728;BMP280;68312;53.502;10.030;2023-07-08T14:27:30;102069.25;;;36.37
77728;BMP280;68312;53.502;10.030;2023-07-08T14:29:55;102053.03;;;36.62
77728;BMP280;68312;53.502;10.030;2023-07-08T14:32:26;102067.84;;;36.70
77728;BMP280;68312;53.502;10.030;2023-07-08T14:34:56;102063.78;;;36.51
77728;BMP280;68312;53.502;10.030;2023-07-08T14:37:24;102060.03;;;36.49
77728;BMP280;68312;53.502;10.030;2023-07-08T14:39:50;102052.66;;;36.55
77728;BMP280;68312;53.502;10.030;2023-07-08T14:42:18;102057.84;;;36.53
77728;BMP280;68312;53.502;10.030;2023-07-08T14:48:28;102053.41;;;36.55
77728;BMP280;68312;53.502;10.030;2023-07-08T14:50:55;102057.34;;;36.97